Time;durP1;ratioP1;P1;durP2;ratioP2;P2;SDS_P1;SDS_P2;PMS_P1;PMS_P2;Temp;Humidity;BMP_temperature;BMP_pressure;BME280_temperature;BME280_humidity;BME280_pressure;Samples;Min_cycle;Max_cycle;Signal;HPM_P1;HPM_P2
2022/01/12 00:00:19;;;;;;;13.68;8.98;;;0.80;1.00;;;;;;5064130;28;20136;-64
2022/01/12 00:02:50;;;;;;;14.13;8.65;;;0.60;1.70;;;;;;5062569;28;20528;-64
2022/01/12 00:05:20;;;;;;;13.68;9.07;;;0.50;2.50;;;;;;5065119;28;20570;-62
2022/01/12 00:07:51;;;;;;;13.35;9.27;;;0.40;3.30;;;;;;5044301;28;20064;-64
2022/01/12 00:10:21;;;;;;;15.25;9.52;;;0.30;3.90;;;;;;5066419;28;20515;-64
2022/01/12 00:12:53;;;;;;;13.18;9.00;;;0.30;5.00;;;;;;5059978;28;20175;-63
2022/01/12 00:15:21;;;;;;;16.17;9.90;;;0.20;5.90;;;;;;5062808;28;20565;-63
2022/01/12 00:17:49;;;;;;;14.10;9.52;;;0.10;6.70;;;;;;5062476;28;20508;-64
2022/01/12 00:20:19;;;;;;;15.30;10.05;;;0.10;7.40;;;;;;5063625;28;20040;-63
2022/01/12 00:22:48;;;;;;;17.13;11.02;;;0.00;8.20;;;;;;5060115;28;20041;-64
2022/01/12 00:25:29;;;;;;;16.98;11.20;;;0.00;9.20;;;;;;5044614;28;20041;-63
2022/01/12 00:33:35;;;;;;;19.95;12.32;;;-0.10;11.60;;;;;;5054813;28;20054;-64
2022/01/12 00:36:04;;;;;;;20.30;11.65;;;-0.10;11.80;;;;;;5060317;28;20500;-63
2022/01/12 00:38:33;;;;;;;18.40;12.15;;;-0.20;12.40;;;;;;5052304;28;20052;-64
2022/01/12 00:41:01;;;;;;;17.58;10.98;;;-0.20;12.80;;;;;;5046008;28;20055;-64
2022/01/12 00:43:40;;;;;;;15.73;11.00;;;-0.30;13.20;;;;;;5042360;28;20107;-62
2022/01/12 00:46:23;;;;;;;17.25;11.43;;;-0.30;13.80;;;;;;5029374;28;20131;-63
2022/01/12 00:48:54;;;;;;;17.52;11.02;;;-0.30;14.30;;;;;;5044337;28;20053;-64
2022/01/12 00:51:25;;;;;;;18.60;12.45;;;-0.30;14.50;;;;;;5056878;28;20051;-63
2022/01/12 00:53:56;;;;;;;18.37;11.60;;;-0.30;14.60;;;;;;5061465;28;20040;-64
2022/01/12 00:56:24;;;;;;;18.05;11.55;;;-0.20;14.20;;;;;;5032632;28;20076;-63
2022/01/12 00:59:10;;;;;;;19.08;11.25;;;-0.20;13.40;;;;;;5052061;28;20060;-64
2022/01/12 01:01:38;;;;;;;18.58;11.77;;;-0.20;13.80;;;;;;5047868;28;20059;-64
2022/01/12 01:04:08;;;;;;;17.58;11.55;;;-0.20;13.60;;;;;;5047893;28;20137;-63
2022/01/12 01:06:36;;;;;;;16.73;11.20;;;-0.30;13.70;;;;;;5052950;28;20115;-64
2022/01/12 01:09:05;;;;;;;16.63;11.05;;;-0.30;14.10;;;;;;5063341;28;20060;-62
2022/01/12 01:11:34;;;;;;;16.33;11.10;;;-0.40;14.20;;;;;;5044723;28;20155;-63
2022/01/12 01:14:15;;;;;;;14.95;10.43;;;-0.50;14.80;;;;;;5045687;28;20118;-62
2022/01/12 01:16:54;;;;;;;18.10;11.27;;;-0.50;15.40;;;;;;5044262;28;20065;-62
2022/01/12 01:27:52;;;;;;;17.83;11.43;;;-0.60;17.20;;;;;;5046692;28;20048;-63
2022/01/12 01:30:21;;;;;;;17.05;11.23;;;-0.60;17.80;;;;;;5059742;28;20135;-62
2022/01/12 01:32:51;;;;;;;16.67;11.57;;;-0.50;18.10;;;;;;5047666;28;20102;-63
2022/01/12 01:35:19;;;;;;;18.23;12.15;;;-0.50;18.10;;;;;;5050804;28;20132;-63
2022/01/12 01:37:50;;;;;;;18.25;11.10;;;-0.60;17.50;;;;;;5041114;28;21557;-64
2022/01/12 01:40:18;;;;;;;19.05;11.45;;;-0.60;17.70;;;;;;5037016;28;20063;-63
2022/01/12 01:43:08;;;;;;;14.88;10.65;;;-0.60;18.10;;;;;;5050299;28;20040;-63
2022/01/12 01:54:03;;;;;;;16.60;10.38;;;-0.40;17.00;;;;;;5061080;28;20048;-62
2022/01/12 01:56:31;;;;;;;16.55;10.85;;;-0.30;16.20;;;;;;5047737;28;20064;-63
2022/01/12 01:59:01;;;;;;;15.48;11.05;;;-0.20;16.10;;;;;;5047333;28;20041;-63
2022/01/12 02:01:30;;;;;;;15.98;10.85;;;-0.30;15.30;;;;;;5045828;28;21501;-63
2022/01/12 02:04:02;;;;;;;17.58;10.38;;;-0.20;14.90;;;;;;5047009;28;20416;-63
2022/01/12 02:06:31;;;;;;;18.60;10.90;;;-0.20;14.40;;;;;;5057247;28;20041;-63
2022/01/12 02:08:59;;;;;;;13.88;10.98;;;-0.30;14.60;;;;;;5066731;28;20127;-63
2022/01/12 02:11:29;;;;;;;17.05;10.32;;;-0.30;15.00;;;;;;5064533;28;20066;-62
2022/01/12 02:13:58;;;;;;;15.80;10.45;;;-0.40;14.70;;;;;;5066289;28;20130;-64
2022/01/12 02:16:32;;;;;;;18.23;10.40;;;-0.50;15.70;;;;;;5067280;28;20492;-63
2022/01/12 02:19:18;;;;;;;18.27;12.40;;;-0.50;16.50;;;;;;5065856;28;20036;-63
2022/01/12 02:35:51;;;;;;;18.15;11.25;;;-0.60;19.40;;;;;;5028213;28;20135;-63
2022/01/12 02:41:05;;;;;;;15.10;10.60;;;-0.50;17.70;;;;;;5014901;28;20584;-63
2022/01/12 02:54:57;;;;;;;16.65;10.63;;;-0.80;19.30;;;;;;5055215;28;20090;-63
2022/01/12 02:57:27;;;;;;;17.83;12.07;;;-0.90;19.30;;;;;;5052253;28;20136;-62
2022/01/12 03:00:05;;;;;;;18.17;10.57;;;-1.00;19.20;;;;;;5046628;28;20501;-63
2022/01/12 03:02:36;;;;;;;20.90;13.05;;;-1.00;19.30;;;;;;5043295;28;20500;-62
2022/01/12 03:05:29;;;;;;;17.27;11.52;;;-1.00;19.50;;;;;;5048951;28;20072;-63
2022/01/12 03:08:02;;;;;;;20.15;12.68;;;-1.10;20.90;;;;;;5044201;28;20055;-62
2022/01/12 03:10:31;;;;;;;22.58;13.27;;;-1.10;21.40;;;;;;5044986;28;20040;-64
2022/01/12 03:13:01;;;;;;;19.85;13.13;;;-1.20;21.60;;;;;;5045489;28;20037;-63
2022/01/12 03:15:29;;;;;;;20.48;13.05;;;-1.20;22.50;;;;;;5047243;28;20519;-63
2022/01/12 03:17:56;;;;;;;20.45;13.75;;;-1.30;22.40;;;;;;5047109;28;20040;-63
2022/01/12 03:20:25;;;;;;;20.30;12.80;;;-1.30;23.80;;;;;;5046833;28;20148;-63
2022/01/12 03:22:53;;;;;;;20.90;13.18;;;-1.30;24.00;;;;;;5044737;28;20049;-63
2022/01/12 03:25:23;;;;;;;18.27;11.43;;;-1.30;24.60;;;;;;5032329;28;20041;-64
2022/01/12 03:27:58;;;;;;;17.52;11.10;;;-1.30;25.10;;;;;;5045984;28;20044;-61
2022/01/12 03:30:36;;;;;;;15.68;10.43;;;-1.30;24.70;;;;;;5048838;28;20048;-64
2022/01/12 03:33:11;;;;;;;18.38;10.25;;;-1.20;24.10;;;;;;5043577;28;20582;-63
2022/01/12 03:35:50;;;;;;;20.05;11.93;;;-1.20;23.20;;;;;;5047178;28;20718;-62
2022/01/12 03:38:21;;;;;;;23.35;14.20;;;-1.30;22.60;;;;;;5063409;28;20054;-62
2022/01/12 03:40:50;;;;;;;23.50;14.48;;;-1.40;23.60;;;;;;5046907;28;20574;-63
2022/01/12 03:43:20;;;;;;;25.52;15.27;;;-1.40;24.60;;;;;;5043869;28;20064;-63
2022/01/12 03:45:49;;;;;;;22.00;14.27;;;-1.40;25.40;;;;;;5045865;28;20110;-63
2022/01/12 03:48:18;;;;;;;25.77;15.70;;;-1.50;25.60;;;;;;5040067;28;20041;-63
2022/01/12 03:50:48;;;;;;;20.95;13.82;;;-1.50;26.40;;;;;;5044686;28;20047;-62
2022/01/12 03:53:16;;;;;;;14.45;10.88;;;-1.40;27.20;;;;;;5042541;28;20080;-63
2022/01/12 03:55:46;;;;;;;15.13;10.25;;;-1.40;26.70;;;;;;5049026;28;20502;-64
2022/01/12 03:58:16;;;;;;;14.07;9.95;;;-1.40;25.70;;;;;;5044204;28;20115;-62
2022/01/12 04:00:46;;;;;;;15.85;10.25;;;-1.30;25.30;;;;;;5044069;28;20143;-62
2022/01/12 04:03:15;;;;;;;16.88;10.50;;;-1.30;24.30;;;;;;5052278;28;20041;-63
2022/01/12 04:08:25;;;;;;;15.18;10.70;;;-1.20;22.50;;;;;;5042390;28;20055;-64
2022/01/12 04:10:55;;;;;;;19.20;10.93;;;-1.30;22.30;;;;;;5045912;28;20489;-62
2022/01/12 04:13:24;;;;;;;16.40;10.63;;;-1.40;22.40;;;;;;5041394;28;20040;-62
2022/01/12 04:15:55;;;;;;;14.85;10.40;;;-1.40;22.70;;;;;;5044330;28;20040;-63
2022/01/12 04:18:24;;;;;;;16.27;11.30;;;-1.50;23.40;;;;;;5043358;28;20128;-63
2022/01/12 04:20:52;;;;;;;19.42;12.40;;;-1.50;23.90;;;;;;5042129;28;20092;-62
2022/01/12 04:23:22;;;;;;;20.85;12.43;;;-1.50;24.10;;;;;;5041058;28;20040;-62
2022/01/12 04:25:54;;;;;;;18.98;12.27;;;-1.50;23.50;;;;;;5043330;28;20069;-63
2022/01/12 04:28:26;;;;;;;20.35;12.43;;;-1.40;23.90;;;;;;5044059;28;20029;-62
2022/01/12 04:30:58;;;;;;;20.27;13.10;;;-1.40;24.00;;;;;;5062618;28;20040;-61
2022/01/12 04:33:29;;;;;;;22.17;13.13;;;-1.40;23.70;;;;;;5056350;28;20044;-63
2022/01/12 04:35:57;;;;;;;19.00;13.00;;;-1.50;23.40;;;;;;5051112;28;20044;-63
2022/01/12 04:38:29;;;;;;;19.58;12.15;;;-1.50;23.90;;;;;;5055417;28;20217;-65
2022/01/12 04:40:57;;;;;;;19.05;12.63;;;-1.40;24.40;;;;;;5058835;28;20049;-62
2022/01/12 04:43:26;;;;;;;25.52;12.30;;;-1.40;23.90;;;;;;5031532;28;20065;-62
2022/01/12 04:46:10;;;;;;;17.80;11.40;;;-1.50;23.90;;;;;;5049002;28;20143;-62
2022/01/12 04:48:52;;;;;;;23.83;13.10;;;-1.50;24.20;;;;;;5024432;28;20045;-63
2022/01/12 04:51:22;;;;;;;17.95;12.10;;;-1.50;24.50;;;;;;5039527;28;20040;-63
2022/01/12 04:53:50;;;;;;;18.23;12.20;;;-1.50;24.30;;;;;;5044695;28;20072;-63
2022/01/12 04:56:18;;;;;;;18.08;12.60;;;-1.50;24.20;;;;;;5046751;28;20523;-63
2022/01/12 04:58:46;;;;;;;22.40;12.95;;;-1.60;24.20;;;;;;5047371;28;20049;-62
2022/01/12 05:01:23;;;;;;;20.05;13.73;;;-1.60;24.60;;;;;;5065795;28;20041;-62
2022/01/12 05:06:55;;;;;;;20.67;12.80;;;-1.60;24.40;;;;;;5047932;28;20120;-62
2022/01/12 05:15:04;;;;;;;18.98;12.63;;;-1.70;25.00;;;;;;5050903;28;20170;-63
2022/01/12 05:17:34;;;;;;;18.00;11.80;;;-1.70;25.00;;;;;;5058734;28;20131;-63
2022/01/12 05:20:04;;;;;;;20.23;11.95;;;-1.60;25.40;;;;;;5059239;28;20053;-61
2022/01/12 05:22:32;;;;;;;17.48;11.30;;;-1.60;25.50;;;;;;5060882;28;20110;-62
2022/01/12 05:25:01;;;;;;;23.30;13.25;;;-1.60;25.60;;;;;;5058797;28;20504;-62
2022/01/12 05:27:29;;;;;;;22.85;13.07;;;-1.30;29.00;;;;;;5054837;28;20148;-63
2022/01/12 05:29:57;;;;;;;18.58;12.38;;;-1.40;25.70;;;;;;5056945;28;20317;-63
2022/01/12 05:32:26;;;;;;;19.48;12.18;;;-1.50;25.60;;;;;;5053502;28;20135;-62
2022/01/12 05:34:57;;;;;;;18.85;12.95;;;-1.50;25.20;;;;;;5059149;28;20053;-62
2022/01/12 05:37:30;;;;;;;18.67;12.20;;;-1.50;24.90;;;;;;5062467;28;20044;-65
2022/01/12 05:40:01;;;;;;;19.02;12.73;;;-1.50;24.80;;;;;;5054659;28;20045;-62
2022/01/12 05:42:30;;;;;;;19.30;12.57;;;-1.60;24.40;;;;;;5059744;28;20048;-63
2022/01/12 05:44:58;;;;;;;18.90;12.82;;;-1.50;24.80;;;;;;5058208;28;20047;-62
2022/01/12 05:49:33;;;;;;;24.42;14.13;;;-1.50;25.40;;;;;;5046897;28;20055;-63
2022/01/12 05:50:25;;;;;;;19.88;12.85;;;-1.50;25.10;;;;;;5056600;28;20049;-63
2022/01/12 05:52:55;;;;;;;19.70;12.88;;;-1.50;24.60;;;;;;5066543;28;20131;-62
2022/01/12 05:55:23;;;;;;;20.30;13.18;;;-1.40;24.00;;;;;;5055889;28;20051;-63
2022/01/12 05:57:51;;;;;;;19.33;12.18;;;-1.40;23.20;;;;;;5057316;28;20087;-62
2022/01/12 06:00:24;;;;;;;21.25;13.23;;;-1.50;23.30;;;;;;5062312;28;20142;-62
2022/01/12 06:02:52;;;;;;;19.73;12.48;;;-1.50;22.80;;;;;;5031297;28;20801;-62
2022/01/12 06:05:23;;;;;;;19.48;12.70;;;-1.50;22.70;;;;;;5047648;28;20081;-63
2022/01/12 06:07:53;;;;;;;19.40;13.38;;;-1.50;22.50;;;;;;5061451;28;20466;-62
2022/01/12 06:10:23;;;;;;;25.95;14.10;;;-1.50;22.70;;;;;;5049367;28;20504;-62
2022/01/12 06:12:51;;;;;;;23.00;13.95;;;-1.40;23.10;;;;;;5061038;28;20036;-62
2022/01/12 06:15:20;;;;;;;21.70;13.90;;;-1.50;22.80;;;;;;5057245;28;20044;-62
2022/01/12 06:17:48;;;;;;;27.08;14.07;;;-1.50;23.10;;;;;;5045920;28;20167;-63
2022/01/12 06:20:16;;;;;;;22.88;14.02;;;-1.50;23.70;;;;;;5068252;28;20047;-62
2022/01/12 06:22:46;;;;;;;21.13;13.77;;;-1.50;23.70;;;;;;5064949;28;20040;-62
2022/01/12 06:25:15;;;;;;;21.15;13.40;;;-1.50;23.40;;;;;;5067229;28;20045;-63
2022/01/12 06:27:51;;;;;;;24.73;14.13;;;-1.50;23.30;;;;;;5065772;28;20064;-63
2022/01/12 06:33:07;;;;;;;20.08;13.57;;;-1.60;23.60;;;;;;5063856;28;20135;-63
2022/01/12 06:35:35;;;;;;;23.48;13.93;;;-1.60;24.00;;;;;;5065866;28;20127;-62
2022/01/12 06:38:03;;;;;;;24.67;13.80;;;-1.60;24.60;;;;;;5036978;28;20055;-63
2022/01/12 06:40:31;;;;;;;22.65;15.27;;;-1.60;24.50;;;;;;5045337;28;20128;-62
2022/01/12 06:43:01;;;;;;;23.67;14.60;;;-1.60;25.10;;;;;;5044354;28;20128;-63
2022/01/12 06:45:30;;;;;;;23.33;14.80;;;-1.60;25.50;;;;;;5045868;28;20051;-63
2022/01/12 06:47:58;;;;;;;24.08;15.35;;;-1.50;25.10;;;;;;5043786;28;20052;-62
2022/01/12 06:50:26;;;;;;;24.25;14.23;;;-1.60;24.40;;;;;;5043588;28;20419;-63
2022/01/12 06:52:54;;;;;;;23.77;14.32;;;-1.60;24.40;;;;;;5044006;28;20135;-63
2022/01/12 06:55:22;;;;;;;23.25;13.98;;;-1.70;24.20;;;;;;5059815;28;20044;-63
2022/01/12 06:57:51;;;;;;;19.55;13.38;;;-1.70;24.70;;;;;;5065308;28;20045;-63
2022/01/12 07:00:21;;;;;;;22.92;13.65;;;-1.70;24.70;;;;;;5068433;28;20036;-63
2022/01/12 07:02:49;;;;;;;39.83;19.35;;;-1.70;24.90;;;;;;5062200;28;20131;-62
2022/01/12 07:05:17;;;;;;;105.85;42.60;;;-1.60;25.00;;;;;;5047081;28;20075;-62
2022/01/12 07:07:45;;;;;;;40.65;21.65;;;-1.80;24.50;;;;;;5043201;28;20044;-63
2022/01/12 07:10:13;;;;;;;28.35;17.20;;;-1.80;24.70;;;;;;5046837;28;20039;-62
2022/01/12 07:12:43;;;;;;;24.65;14.93;;;-1.80;24.90;;;;;;5045041;28;20040;-62
2022/01/12 07:15:11;;;;;;;25.50;14.65;;;-1.70;25.40;;;;;;5046118;28;20061;-63
2022/01/12 07:17:40;;;;;;;26.35;15.38;;;-1.70;24.70;;;;;;5042716;28;20049;-63
2022/01/12 07:20:11;;;;;;;22.95;14.18;;;-1.70;24.50;;;;;;5047267;28;20061;-62
2022/01/12 07:22:39;;;;;;;23.75;14.65;;;-1.70;24.40;;;;;;5036314;28;20136;-62
2022/01/12 07:25:07;;;;;;;23.52;15.13;;;-1.70;24.90;;;;;;5049638;28;20138;-63
2022/01/12 07:27:39;;;;;;;23.02;14.05;;;-1.70;24.00;;;;;;5049026;28;20048;-62
2022/01/12 07:30:09;;;;;;;21.60;14.30;;;-1.70;24.40;;;;;;5050713;28;20044;-62
2022/01/12 07:32:37;;;;;;;23.65;14.18;;;-1.70;24.40;;;;;;5051296;28;20127;-62
2022/01/12 07:35:07;;;;;;;24.80;15.00;;;-1.70;23.70;;;;;;5059752;28;20150;-62
2022/01/12 07:37:35;;;;;;;22.63;13.95;;;-1.70;23.60;;;;;;5045655;28;20064;-62
2022/01/12 07:40:04;;;;;;;27.08;14.50;;;-1.60;23.70;;;;;;5065900;28;20055;-61
2022/01/12 07:42:32;;;;;;;25.88;14.85;;;-1.50;23.30;;;;;;5052401;28;20135;-61
2022/01/12 07:45:01;;;;;;;27.40;14.82;;;-1.40;22.40;;;;;;5052395;28;20135;-61
2022/01/12 07:47:30;;;;;;;25.50;14.75;;;-1.30;22.00;;;;;;5063592;28;20492;-62
2022/01/12 07:50:04;;;;;;;22.98;13.98;;;-1.40;20.80;;;;;;5066180;28;20086;-62
2022/01/12 07:52:33;;;;;;;23.52;14.25;;;-1.30;20.70;;;;;;5040972;28;20510;-64
2022/01/12 07:55:02;;;;;;;31.08;16.73;;;-1.20;19.90;;;;;;5043249;28;20132;-63
2022/01/12 07:57:30;;;;;;;37.28;19.75;;;-1.10;19.20;;;;;;5039069;28;20096;-63
2022/01/12 07:59:59;;;;;;;26.75;15.50;;;-1.10;19.20;;;;;;5045558;28;20047;-63
2022/01/12 08:02:27;;;;;;;23.90;15.23;;;-1.10;19.10;;;;;;5042092;28;20041;-63
2022/01/12 08:04:55;;;;;;;23.33;15.10;;;-1.10;19.20;;;;;;5045076;28;20068;-62
2022/01/12 08:07:23;;;;;;;24.52;15.30;;;-1.20;18.20;;;;;;5058409;28;20051;-64
2022/01/12 08:09:54;;;;;;;24.60;15.65;;;-1.10;19.40;;;;;;5063870;28;20060;-63
2022/01/12 08:12:22;;;;;;;27.58;15.98;;;-1.00;20.20;;;;;;5063371;28;20530;-63
2022/01/12 08:14:50;;;;;;;28.48;15.20;;;-0.90;20.10;;;;;;5065429;28;20044;-62
2022/01/12 08:17:18;;;;;;;25.05;16.50;;;-0.80;19.30;;;;;;5063444;28;20086;-63
2022/01/12 08:19:46;;;;;;;29.10;16.98;;;-0.80;18.30;;;;;;5050943;28;20049;-62
2022/01/12 08:22:14;;;;;;;25.67;16.00;;;-0.80;17.60;;;;;;5059531;28;20500;-63
2022/01/12 08:24:42;;;;;;;26.48;14.93;;;-0.90;16.90;;;;;;5065303;28;20048;-62
2022/01/12 08:27:16;;;;;;;21.77;15.30;;;-0.80;17.10;;;;;;5059961;28;20045;-62
2022/01/12 08:29:44;;;;;;;28.90;16.25;;;-0.90;17.00;;;;;;5064875;28;20043;-63
2022/01/12 08:32:13;;;;;;;27.88;14.68;;;-0.90;18.30;;;;;;5062063;28;20093;-63
2022/01/12 08:34:44;;;;;;;27.45;15.90;;;-0.90;18.70;;;;;;5066283;28;20041;-62
2022/01/12 08:37:12;;;;;;;32.92;16.67;;;-0.80;18.80;;;;;;5067315;28;20140;-62
2022/01/12 08:39:41;;;;;;;29.58;17.77;;;-0.80;19.00;;;;;;5064534;28;20046;-63
2022/01/12 08:42:10;;;;;;;27.70;15.55;;;-0.80;18.40;;;;;;5063767;28;20045;-63
2022/01/12 08:44:45;;;;;;;27.30;16.43;;;-0.70;18.30;;;;;;5065485;28;20503;-63
2022/01/12 08:47:13;;;;;;;28.42;15.43;;;-0.70;17.40;;;;;;5061083;28;20394;-63
2022/01/12 08:49:42;;;;;;;27.90;15.70;;;-0.70;16.50;;;;;;5047003;28;20033;-64
2022/01/12 08:52:11;;;;;;;30.67;17.85;;;-0.60;16.40;;;;;;5061966;28;20500;-62
2022/01/12 08:54:39;;;;;;;25.38;15.20;;;-0.60;15.70;;;;;;5065203;28;20127;-62
2022/01/12 08:57:07;;;;;;;28.83;16.38;;;-0.60;14.60;;;;;;5063517;28;20052;-62
2022/01/12 08:59:35;;;;;;;26.88;15.52;;;-0.70;13.80;;;;;;5064896;28;20670;-63
2022/01/12 09:02:06;;;;;;;26.13;14.65;;;-0.80;14.80;;;;;;5043578;28;20048;-63
2022/01/12 09:04:37;;;;;;;26.70;15.82;;;-0.70;15.50;;;;;;5064224;28;20123;-64
2022/01/12 09:07:05;;;;;;;25.77;15.98;;;-0.70;14.40;;;;;;5063930;28;20057;-64
2022/01/12 09:09:33;;;;;;;25.05;15.10;;;-0.60;14.40;;;;;;5065630;28;20047;-63
2022/01/12 09:12:01;;;;;;;22.60;14.40;;;-0.40;13.50;;;;;;5062387;28;20178;-63
2022/01/12 09:14:34;;;;;;;24.02;14.80;;;-0.50;12.90;;;;;;5064463;28;20504;-63
2022/01/12 09:17:15;;;;;;;23.92;15.60;;;-0.50;13.50;;;;;;5046867;28;20128;-63
2022/01/12 09:19:43;;;;;;;24.17;15.10;;;-0.40;12.70;;;;;;5069538;28;20545;-62
2022/01/12 09:22:12;;;;;;;22.27;14.52;;;-0.50;12.60;;;;;;5067570;28;20075;-62
2022/01/12 09:24:42;;;;;;;26.00;15.15;;;-0.30;12.70;;;;;;5068631;28;20128;-61
2022/01/12 09:27:10;;;;;;;26.67;14.70;;;-0.20;11.70;;;;;;5064099;28;20056;-62
2022/01/12 09:29:41;;;;;;;23.70;14.07;;;0.00;10.70;;;;;;5066892;28;20036;-63
2022/01/12 09:32:12;;;;;;;20.83;13.48;;;0.10;10.50;;;;;;5063524;28;20075;-63
2022/01/12 09:34:40;;;;;;;24.42;14.25;;;0.10;8.60;;;;;;5069071;28;20194;-62
2022/01/12 09:37:08;;;;;;;20.13;13.02;;;0.00;8.40;;;;;;5065121;28;20086;-62
2022/01/12 09:39:37;;;;;;;20.35;13.70;;;0.00;9.20;;;;;;5060155;28;20490;-62
2022/01/12 09:42:05;;;;;;;19.45;12.40;;;0.20;9.50;;;;;;5064650;28;20072;-63
2022/01/12 09:44:35;;;;;;;22.58;12.65;;;0.00;8.30;;;;;;5068411;28;20483;-62
2022/01/12 09:47:05;;;;;;;22.00;12.73;;;0.20;8.80;;;;;;5066147;28;20071;-62
2022/01/12 09:49:38;;;;;;;21.95;13.00;;;0.30;7.90;;;;;;5062105;28;20048;-61
2022/01/12 09:52:09;;;;;;;21.42;12.30;;;0.30;6.00;;;;;;5062756;28;20130;-62
2022/01/12 09:54:38;;;;;;;17.58;11.48;;;0.40;5.00;;;;;;5070407;28;20071;-63
2022/01/12 09:57:06;;;;;;;17.95;12.23;;;0.30;3.70;;;;;;5066714;28;20060;-62
2022/01/12 09:59:35;;;;;;;19.27;12.25;;;0.40;3.50;;;;;;5054535;28;20048;-62
2022/01/12 10:02:04;;;;;;;21.23;12.82;;;0.50;3.70;;;;;;5067140;28;20044;-63
2022/01/12 10:04:33;;;;;;;18.67;12.05;;;0.20;3.40;;;;;;5070444;28;20048;-62
2022/01/12 10:07:05;;;;;;;23.58;14.00;;;0.40;3.90;;;;;;5067949;28;20137;-63
2022/01/12 10:09:40;;;;;;;19.80;12.52;;;0.50;3.40;;;;;;5059673;28;20051;-64
2022/01/12 10:12:13;;;;;;;19.98;12.70;;;0.60;3.80;;;;;;5066185;28;20052;-62
2022/01/12 10:14:46;;;;;;;22.25;13.57;;;0.50;3.80;;;;;;5066039;28;20035;-63
2022/01/12 10:17:14;;;;;;;20.92;13.07;;;0.60;3.70;;;;;;5062176;28;20143;-62
2022/01/12 10:19:43;;;;;;;21.02;12.77;;;0.70;3.70;;;;;;5068540;28;20128;-63
2022/01/12 10:22:15;;;;;;;20.08;12.57;;;0.80;2.40;;;;;;5046438;28;20041;-62
2022/01/12 10:24:46;;;;;;;21.70;13.13;;;0.60;2.30;;;;;;5031240;28;20041;-62
2022/01/12 10:27:16;;;;;;;22.98;13.55;;;0.80;2.40;;;;;;5034005;28;20041;-62
2022/01/12 10:29:46;;;;;;;19.48;12.77;;;0.80;2.30;;;;;;5062861;28;20121;-65
2022/01/12 10:32:19;;;;;;;22.92;13.98;;;0.60;2.70;;;;;;5060954;28;20037;-63
2022/01/12 10:34:50;;;;;;;21.00;13.63;;;0.70;3.10;;;;;;5057468;28;20041;-62
2022/01/12 10:37:26;;;;;;;24.80;14.95;;;0.70;2.70;;;;;;5053878;28;20052;-61
2022/01/12 10:39:57;;;;;;;31.45;17.48;;;0.80;3.40;;;;;;5069158;28;20574;-62
2022/01/12 10:42:28;;;;;;;24.33;13.43;;;0.90;2.80;;;;;;5066497;28;20492;-62
2022/01/12 10:45:01;;;;;;;22.08;13.52;;;0.90;2.80;;;;;;5067397;28;20041;-63
2022/01/12 10:47:31;;;;;;;18.60;12.60;;;0.90;2.70;;;;;;5057422;28;20123;-63
2022/01/12 10:50:02;;;;;;;22.15;13.82;;;0.80;2.10;;;;;;5049156;28;20045;-63
2022/01/12 10:52:34;;;;;;;27.15;13.63;;;0.80;2.70;;;;;;5053123;28;20095;-63
2022/01/12 10:55:05;;;;;;;23.23;14.65;;;1.00;1.90;;;;;;5047009;28;20068;-63
2022/01/12 10:57:35;;;;;;;21.95;14.32;;;1.00;1.00;;;;;;5045266;28;20131;-62
2022/01/12 11:00:10;;;;;;;22.92;13.40;;;1.10;1.10;;;;;;5056695;28;20047;-63
2022/01/12 11:02:40;;;;;;;22.60;14.07;;;1.10;1.40;;;;;;5063031;28;20063;-63
2022/01/12 11:05:10;;;;;;;23.35;13.73;;;1.10;1.00;;;;;;5066896;28;20056;-63
2022/01/12 11:07:39;;;;;;;21.60;13.13;;;1.20;1.00;;;;;;5065540;28;20349;-63
2022/01/12 11:10:09;;;;;;;18.95;12.63;;;1.30;1.00;;;;;;5061582;28;20055;-63
2022/01/12 11:12:41;;;;;;;19.25;11.68;;;1.40;1.00;;;;;;5032089;28;20044;-62
2022/01/12 11:15:10;;;;;;;19.25;12.02;;;1.20;1.00;;;;;;5051028;28;20131;-62
2022/01/12 11:17:39;;;;;;;22.77;13.15;;;1.00;1.00;;;;;;5048065;28;20131;-63
2022/01/12 11:20:17;;;;;;;15.93;10.77;;;1.20;1.00;;;;;;5051175;28;20900;-63
2022/01/12 11:22:56;;;;;;;20.50;11.90;;;1.30;1.00;;;;;;5062570;28;20044;-64
2022/01/12 11:25:30;;;;;;;17.55;11.32;;;1.20;1.00;;;;;;5070134;28;20032;-63
2022/01/12 11:28:11;;;;;;;17.77;11.43;;;1.50;1.00;;;;;;5065103;28;20278;-62
2022/01/12 11:30:43;;;;;;;20.95;12.23;;;1.30;1.00;;;;;;5066880;28;20044;-63
2022/01/12 11:33:14;;;;;;;21.20;12.82;;;1.30;1.00;;;;;;5064994;28;20564;-63
2022/01/12 11:35:44;;;;;;;16.65;11.32;;;1.50;1.00;;;;;;5066660;28;20040;-64
2022/01/12 11:38:26;;;;;;;19.05;11.63;;;1.70;1.00;;;;;;5066319;28;20044;-63
2022/01/12 11:40:55;;;;;;;16.13;10.55;;;1.70;1.00;;;;;;5068473;28;20056;-65
2022/01/12 11:43:27;;;;;;;18.73;11.43;;;1.60;1.00;;;;;;5064357;28;20040;-63
2022/01/12 11:46:04;;;;;;;18.88;12.70;;;1.40;1.00;;;;;;5068535;28;20135;-64
2022/01/12 11:48:35;;;;;;;16.95;11.02;;;1.30;1.00;;;;;;5062252;28;20055;-63
2022/01/12 11:51:05;;;;;;;18.45;11.80;;;1.50;1.00;;;;;;5065172;28;20052;-63
2022/01/12 11:53:47;;;;;;;19.48;12.30;;;1.40;1.00;;;;;;5062823;28;20179;-63
2022/01/12 11:56:18;;;;;;;22.48;12.55;;;1.30;1.00;;;;;;5065278;28;20798;-64
2022/01/12 11:58:58;;;;;;;20.75;12.02;;;1.50;1.00;;;;;;5064558;28;20185;-64
2022/01/12 12:01:44;;;;;;;19.42;11.95;;;1.50;1.00;;;;;;5064655;28;20036;-64
2022/01/12 12:04:27;;;;;;;22.17;12.10;;;1.60;1.00;;;;;;5066343;28;20044;-63
2022/01/12 12:07:04;;;;;;;17.17;11.73;;;1.60;1.00;;;;;;5063291;28;20355;-64
2022/01/12 12:09:39;;;;;;;17.70;11.60;;;1.60;1.00;;;;;;5068194;28;20052;-64
2022/01/12 12:12:17;;;;;;;17.98;11.85;;;1.60;1.00;;;;;;5063519;28;20488;-63
2022/01/12 12:14:47;;;;;;;21.55;11.88;;;1.60;1.00;;;;;;5063082;28;20120;-64
2022/01/12 12:17:15;;;;;;;18.67;11.10;;;1.60;1.00;;;;;;5068428;28;20058;-64
2022/01/12 12:19:45;;;;;;;19.08;11.48;;;1.40;1.00;;;;;;5066391;28;20044;-63
2022/01/12 12:22:18;;;;;;;19.00;11.85;;;1.40;1.00;;;;;;5065852;28;20119;-64
2022/01/12 12:24:54;;;;;;;19.17;10.45;;;1.60;1.00;;;;;;5063399;28;20523;-64
2022/01/12 12:27:25;;;;;;;17.17;11.18;;;1.60;1.00;;;;;;5064878;28;20684;-63
2022/01/12 12:29:54;;;;;;;15.65;10.35;;;1.70;1.00;;;;;;5067799;28;20051;-64
2022/01/12 12:32:34;;;;;;;18.48;11.48;;;1.70;1.00;;;;;;5063607;28;20037;-64
2022/01/12 12:35:07;;;;;;;19.58;11.02;;;1.70;1.00;;;;;;5067933;28;20040;-64
2022/01/12 12:37:37;;;;;;;26.88;13.73;;;1.60;1.00;;;;;;5065529;28;20103;-63
2022/01/12 12:40:20;;;;;;;28.58;14.73;;;1.70;1.00;;;;;;5070078;28;20083;-64
2022/01/12 12:43:01;;;;;;;19.02;11.70;;;1.60;1.00;;;;;;5059209;28;21108;-63
2022/01/12 12:45:37;;;;;;;22.85;12.95;;;1.70;1.00;;;;;;5066294;28;20049;-63
2022/01/12 12:48:07;;;;;;;16.83;11.10;;;1.50;1.00;;;;;;5067405;28;20144;-64
2022/01/12 12:50:36;;;;;;;17.60;11.15;;;1.60;1.00;;;;;;5069987;28;20050;-63
2022/01/12 12:53:09;;;;;;;17.13;10.73;;;1.50;1.00;;;;;;5070570;28;20048;-64
2022/01/12 12:55:40;;;;;;;18.42;10.52;;;1.50;1.00;;;;;;5067623;28;20390;-64
2022/01/12 12:58:09;;;;;;;16.48;11.65;;;1.60;1.00;;;;;;5053037;28;21058;-63
2022/01/12 13:00:39;;;;;;;17.13;11.27;;;1.70;1.00;;;;;;5061056;28;20048;-63
2022/01/12 13:03:07;;;;;;;17.63;11.50;;;1.70;1.00;;;;;;5063071;28;20139;-64
2022/01/12 13:05:42;;;;;;;15.23;9.75;;;1.70;1.00;;;;;;5066424;28;20087;-63
2022/01/12 13:08:10;;;;;;;15.80;10.95;;;1.60;1.00;;;;;;5067654;28;20135;-63
2022/01/12 13:10:40;;;;;;;13.65;9.35;;;1.60;1.00;;;;;;5032906;28;20084;-63
2022/01/12 13:13:10;;;;;;;15.77;9.75;;;1.60;1.00;;;;;;5044687;28;20106;-63
2022/01/12 13:15:42;;;;;;;17.40;11.05;;;1.60;1.00;;;;;;5048031;28;20041;-63
2022/01/12 13:18:13;;;;;;;19.75;10.27;;;1.60;1.00;;;;;;5047654;28;20132;-63
2022/01/12 13:23:32;;;;;;;18.05;11.25;;;1.70;1.00;;;;;;5039703;28;20037;-64
2022/01/12 13:26:06;;;;;;;16.00;10.23;;;1.70;1.00;;;;;;5046693;28;20049;-63
2022/01/12 13:28:34;;;;;;;16.38;10.63;;;1.70;1.00;;;;;;5047183;28;20119;-62
2022/01/12 13:31:06;;;;;;;15.13;9.70;;;1.70;1.00;;;;;;5053641;28;20053;-63
2022/01/12 13:33:39;;;;;;;14.00;10.00;;;1.60;1.00;;;;;;5048086;28;20038;-63
2022/01/12 13:36:15;;;;;;;16.50;10.82;;;1.70;1.00;;;;;;5054829;28;20433;-64
2022/01/12 13:38:47;;;;;;;16.05;9.65;;;1.70;1.00;;;;;;5053790;28;20048;-64
2022/01/12 13:41:22;;;;;;;16.80;10.10;;;1.60;1.00;;;;;;5050909;28;20088;-64
2022/01/12 13:43:57;;;;;;;15.40;10.10;;;1.60;1.00;;;;;;5047898;28;20120;-62
2022/01/12 13:46:33;;;;;;;16.20;10.05;;;1.60;1.00;;;;;;5053865;28;20573;-63
2022/01/12 13:49:22;;;;;;;16.25;10.80;;;1.60;1.00;;;;;;5050241;28;20071;-63
2022/01/12 13:51:58;;;;;;;14.57;10.27;;;1.60;1.00;;;;;;5050997;28;20135;-63
2022/01/12 13:54:33;;;;;;;16.77;10.73;;;1.70;1.00;;;;;;5051346;28;20052;-63
2022/01/12 13:57:03;;;;;;;16.02;10.38;;;1.60;1.00;;;;;;5046071;28;20183;-64
2022/01/12 13:59:32;;;;;;;16.80;11.13;;;1.60;1.00;;;;;;5052438;28;20297;-63
2022/01/12 14:02:00;;;;;;;15.55;10.25;;;1.60;1.00;;;;;;5049455;28;20045;-63